Terminal Aerodrome Forecast
Issued by NWS

Home | Current Version | Previous Version | Text Only | Print | Product List | Glossary On
Versions: 1 2 3 4 5 6 7 8 9 10 11 12 13 14 15
154
FTUS46 KLOX 060021 AAA
TAFPRB
TAF AMD
KPRB 060021Z 0600/0624 09012KT P6SM SCT250
     FM060300 VRB06KT P6SM SCT250
     FM061300 00000KT 6SM BR VCFG SCT001 SCT250
     FM061700 VRB03KT P6SM SCT250
     FM062300 09010KT P6SM SKC=

USA.gov is the U.S. government's official web portal to all federal, state and local government web resources and services.